createdAt,value
2018-04-06T00:00:22.137Z,92.10
2018-04-06T00:02:50.364Z,92.00
2018-04-06T00:05:18.716Z,91.60
2018-04-06T00:07:47.688Z,92.50
2018-04-06T00:10:15.958Z,92.50
2018-04-06T00:12:44.225Z,92.00
2018-04-06T00:15:12.472Z,91.90
2018-04-06T00:17:40.730Z,92.20
2018-04-06T00:20:08.993Z,91.90
2018-04-06T00:22:37.167Z,91.80
2018-04-06T00:25:05.455Z,91.80
2018-04-06T00:27:33.677Z,92.40
2018-04-06T00:30:02.708Z,92.70
2018-04-06T00:32:32.188Z,92.70
2018-04-06T00:35:00.573Z,92.70
2018-04-06T00:37:28.796Z,92.80
2018-04-06T00:39:57.066Z,93.00
2018-04-06T00:42:25.267Z,93.00
2018-04-06T00:44:54.224Z,93.00
2018-04-06T00:47:22.852Z,93.00
2018-04-06T00:49:51.166Z,93.20
2018-04-06T00:52:19.410Z,93.30
2018-04-06T00:54:48.901Z,93.30
2018-04-06T00:57:17.861Z,93.10
2018-04-06T00:59:46.051Z,93.10
2018-04-06T01:02:14.451Z,93.20
2018-04-06T01:04:42.621Z,93.30
2018-04-06T01:07:11.637Z,94.20
2018-04-06T01:09:40.002Z,94.10
2018-04-06T01:12:08.178Z,94.00
2018-04-06T01:14:37.152Z,94.10
2018-04-06T01:17:07.412Z,94.20
2018-04-06T01:19:35.656Z,94.20
2018-04-06T01:22:04.647Z,94.80
2018-04-06T01:24:32.853Z,94.80
2018-04-06T01:27:01.104Z,94.80
2018-04-06T01:29:29.320Z,94.80
2018-04-06T01:31:57.600Z,94.90
2018-04-06T01:34:25.792Z,95.20
2018-04-06T01:36:54.016Z,95.40
2018-04-06T01:39:22.418Z,95.30
2018-04-06T01:41:50.617Z,95.50
2018-04-06T01:44:18.848Z,95.00
2018-04-06T01:46:47.068Z,94.80
2018-04-06T01:49:15.266Z,94.70
2018-04-06T01:51:43.490Z,95.00
2018-04-06T01:54:11.754Z,95.10
2018-04-06T01:56:40.768Z,95.70
2018-04-06T01:59:08.985Z,95.70
2018-04-06T02:01:37.361Z,95.80
2018-04-06T02:04:05.796Z,95.80
2018-04-06T02:06:34.834Z,95.90
2018-04-06T02:09:03.226Z,96.00
2018-04-06T02:11:32.243Z,96.40
2018-04-06T02:14:00.521Z,96.30
2018-04-06T02:16:28.713Z,96.20
2018-04-06T02:18:57.002Z,96.00
2018-04-06T02:21:25.212Z,96.00
2018-04-06T02:23:53.460Z,95.90
2018-04-06T02:26:21.653Z,96.00
2018-04-06T02:28:49.843Z,96.40
2018-04-06T02:31:18.861Z,96.00
2018-04-06T02:33:47.066Z,96.20
2018-04-06T02:36:15.653Z,96.30
2018-04-06T02:38:43.913Z,96.20
2018-04-06T02:41:12.122Z,96.10
2018-04-06T02:43:40.361Z,96.10
2018-04-06T02:46:08.589Z,96.40
2018-04-06T02:48:36.804Z,96.70
2018-04-06T02:51:04.993Z,96.80
2018-04-06T02:53:33.229Z,96.80
2018-04-06T02:56:02.218Z,97.20
2018-04-06T02:58:31.185Z,97.10
2018-04-06T03:00:59.467Z,97.10
2018-04-06T03:03:27.681Z,96.70
2018-04-06T03:05:56.642Z,97.10
2018-04-06T03:08:25.236Z,97.00
2018-04-06T03:10:54.199Z,96.80
2018-04-06T03:13:22.420Z,96.80
2018-04-06T03:15:50.722Z,96.90
2018-04-06T03:18:18.950Z,97.00
2018-04-06T03:20:47.135Z,97.30
2018-04-06T03:23:16.121Z,97.10
2018-04-06T03:25:44.400Z,97.10
2018-04-06T03:28:13.184Z,96.80
2018-04-06T03:30:41.417Z,96.90
2018-04-06T03:33:09.618Z,96.70
2018-04-06T03:35:37.856Z,96.70
2018-04-06T03:38:06.081Z,96.50
2018-04-06T03:40:34.286Z,96.30
2018-04-06T03:43:02.558Z,96.60
2018-04-06T03:45:31.550Z,96.60
2018-04-06T03:48:00.550Z,97.10
2018-04-06T03:50:29.512Z,96.70
2018-04-06T03:52:57.789Z,96.70
2018-04-06T03:55:25.974Z,97.00
2018-04-06T03:57:55.001Z,96.80
2018-04-06T04:00:23.268Z,96.80
2018-04-06T04:02:51.482Z,96.80
2018-04-06T04:05:19.676Z,96.90
2018-04-06T04:07:47.920Z,96.90
2018-04-06T04:10:16.441Z,97.10
2018-04-06T04:12:44.692Z,97.40
2018-04-06T04:15:15.370Z,97.10
2018-04-06T04:17:44.329Z,96.70
2018-04-06T04:20:12.545Z,96.70
2018-04-06T04:22:41.679Z,97.60
2018-04-06T04:25:09.873Z,97.60
2018-04-06T04:27:38.072Z,97.80
2018-04-06T04:30:07.120Z,98.00
2018-04-06T04:32:35.417Z,98.00
2018-04-06T04:35:03.682Z,97.90
2018-04-06T04:37:31.937Z,97.70
2018-04-06T04:40:00.185Z,97.70
2018-04-06T04:42:29.141Z,98.00
2018-04-06T04:44:57.384Z,98.00
2018-04-06T04:47:25.660Z,98.00
2018-04-06T04:49:53.849Z,97.50
2018-04-06T04:52:22.309Z,97.20
2018-04-06T04:54:50.530Z,97.50
2018-04-06T04:57:18.773Z,97.50
2018-04-06T04:59:47.037Z,97.30
2018-04-06T05:02:15.397Z,97.60
2018-04-06T05:04:43.600Z,97.50
2018-04-06T05:07:11.814Z,97.50
2018-04-06T05:09:40.061Z,97.40
2018-04-06T05:12:09.013Z,97.40
2018-04-06T05:14:37.249Z,97.40
2018-04-06T05:17:05.456Z,97.30
2018-04-06T05:19:34.435Z,97.50
2018-04-06T05:22:02.677Z,97.40
2018-04-06T05:24:30.938Z,97.70
2018-04-06T05:26:59.857Z,97.50
2018-04-06T05:29:28.193Z,97.50
2018-04-06T05:31:56.462Z,97.30
2018-04-06T05:34:24.680Z,97.10
2018-04-06T05:36:52.936Z,97.20
2018-04-06T05:39:21.149Z,97.20
2018-04-06T05:41:49.372Z,96.90
2018-04-06T05:44:17.676Z,96.30
2018-04-06T05:46:45.865Z,96.20
2018-04-06T05:49:14.212Z,96.30
2018-04-06T05:51:42.457Z,96.40
2018-04-06T05:54:11.476Z,96.20
2018-04-06T05:56:39.937Z,96.20
2018-04-06T05:59:08.313Z,96.00
2018-04-06T06:01:36.638Z,96.60
2018-04-06T06:04:04.833Z,96.50
2018-04-06T06:06:33.094Z,95.80
2018-04-06T06:09:01.337Z,95.90
2018-04-06T06:11:29.565Z,95.60
2018-04-06T06:13:57.817Z,95.30
2018-04-06T06:16:26.040Z,95.70
2018-04-06T06:18:55.117Z,94.50
2018-04-06T06:21:24.149Z,93.10
2018-04-06T06:23:52.396Z,93.10
2018-04-06T06:26:21.466Z,93.20
2018-04-06T06:28:49.775Z,93.20
2018-04-06T06:31:19.124Z,93.30
2018-04-06T06:33:47.551Z,93.30
2018-04-06T06:36:16.707Z,93.00
2018-04-06T06:38:44.980Z,93.00
2018-04-06T06:41:13.349Z,92.30
2018-04-06T06:43:41.585Z,91.70
2018-04-06T06:46:09.812Z,91.90
2018-04-06T06:48:38.024Z,91.40
2018-04-06T06:51:08.253Z,91.90
2018-04-06T06:53:37.221Z,90.50
2018-04-06T06:56:05.441Z,90.40
2018-04-06T06:58:33.737Z,90.20
2018-04-06T07:01:01.923Z,90.90
2018-04-06T07:03:30.177Z,88.60
2018-04-06T07:05:58.569Z,89.60
2018-04-06T07:08:26.917Z,89.30
2018-04-06T07:10:55.097Z,89.20
2018-04-06T07:13:23.409Z,86.60
2018-04-06T07:15:51.596Z,83.20
2018-04-06T07:18:19.812Z,83.30
2018-04-06T07:20:48.905Z,83.80
2018-04-06T07:23:17.925Z,80.90
2018-04-06T07:25:46.113Z,80.80
2018-04-06T07:28:14.388Z,80.60
2018-04-06T07:30:42.585Z,81.70
2018-04-06T07:33:10.804Z,83.40
2018-04-06T07:35:41.039Z,81.60
2018-04-06T07:38:10.113Z,80.10
2018-04-06T07:40:38.443Z,80.10
2018-04-06T07:43:06.802Z,78.70
2018-04-06T07:45:34.995Z,80.10
2018-04-06T07:48:03.285Z,79.50
2018-04-06T07:50:31.507Z,81.10
2018-04-06T07:53:00.580Z,78.50
2018-04-06T07:55:29.576Z,74.10
2018-04-06T07:57:58.589Z,72.30
2018-04-06T08:00:27.549Z,75.00
2018-04-06T08:02:55.822Z,75.10
2018-04-06T08:05:24.069Z,70.00
2018-04-06T08:07:52.253Z,66.60
2018-04-06T08:10:20.478Z,63.90
2018-04-06T08:12:49.506Z,57.80
2018-04-06T08:15:18.948Z,57.80
2018-04-06T08:17:47.149Z,56.10
2018-04-06T08:20:15.496Z,51.00
2018-04-06T08:22:43.753Z,50.30
2018-04-06T08:25:12.100Z,49.30
2018-04-06T08:27:40.324Z,50.40
2018-04-06T08:30:08.540Z,51.00
2018-04-06T08:32:36.771Z,50.10
2018-04-06T08:35:05.005Z,47.20
2018-04-06T08:37:34.004Z,48.40
2018-04-06T08:40:02.193Z,48.40
2018-04-06T08:42:30.582Z,48.70
2018-04-06T08:44:58.728Z,49.60
2018-04-06T08:47:26.957Z,51.10
2018-04-06T08:49:55.212Z,50.60
2018-04-06T08:52:23.826Z,50.40
2018-04-06T08:54:51.989Z,54.40
2018-04-06T08:57:20.288Z,51.40
2018-04-06T08:59:48.474Z,51.10
2018-04-06T09:02:17.443Z,51.40
2018-04-06T09:04:45.807Z,51.40
2018-04-06T09:07:14.741Z,47.80
2018-04-06T09:09:43.733Z,49.40
2018-04-06T09:12:12.050Z,49.40
2018-04-06T09:14:40.358Z,47.30
2018-04-06T09:17:09.338Z,47.10
2018-04-06T09:19:38.364Z,45.10
2018-04-06T09:22:07.473Z,44.90
2018-04-06T09:24:36.465Z,44.50
2018-04-06T09:27:05.604Z,46.60
2018-04-06T09:29:33.796Z,46.50
2018-04-06T09:32:02.029Z,48.50
2018-04-06T09:34:30.240Z,43.70
2018-04-06T09:36:58.429Z,44.10
2018-04-06T09:39:26.696Z,42.60
2018-04-06T09:41:54.942Z,41.70
2018-04-06T09:44:23.201Z,39.70
2018-04-06T09:46:51.442Z,36.50
2018-04-06T09:49:19.770Z,36.60
2018-04-06T09:51:48.003Z,32.90
2018-04-06T09:54:16.531Z,29.60
2018-04-06T09:56:45.590Z,27.20
2018-04-06T09:59:13.801Z,27.60
2018-04-06T10:01:42.095Z,26.50
2018-04-06T10:04:10.323Z,26.40
2018-04-06T10:06:38.520Z,26.70
2018-04-06T10:09:07.666Z,26.30
2018-04-06T10:11:35.968Z,26.30
2018-04-06T10:14:04.173Z,25.90
2018-04-06T10:16:32.400Z,25.70
2018-04-06T10:19:00.673Z,26.30
2018-04-06T10:21:28.982Z,26.20
2018-04-06T10:23:57.176Z,26.80
2018-04-06T10:26:25.471Z,27.30
2018-04-06T10:28:53.668Z,27.70
2018-04-06T10:31:21.873Z,26.80
2018-04-06T10:33:50.403Z,26.90
2018-04-06T10:36:19.517Z,28.20
2018-04-06T10:38:47.835Z,28.20
2018-04-06T10:41:16.040Z,26.60
2018-04-06T10:43:44.277Z,28.00
2018-04-06T10:46:12.591Z,27.80
2018-04-06T10:48:40.812Z,26.90
2018-04-06T10:51:09.052Z,26.80
2018-04-06T10:53:37.284Z,25.70
2018-04-06T10:56:05.524Z,25.00
2018-04-06T10:58:33.772Z,24.90
2018-04-06T11:01:01.958Z,25.80
2018-04-06T11:03:30.282Z,25.40
2018-04-06T11:05:58.597Z,25.80
2018-04-06T11:08:27.669Z,25.70
2018-04-06T11:10:55.892Z,25.60
2018-04-06T11:13:24.176Z,24.50
2018-04-06T11:15:52.476Z,25.50
2018-04-06T11:18:20.754Z,24.70
2018-04-06T11:20:48.992Z,25.70
2018-04-06T11:23:17.192Z,24.30
2018-04-06T11:25:45.836Z,26.10
2018-04-06T11:28:14.800Z,24.00
2018-04-06T11:30:43.022Z,24.10
2018-04-06T11:33:11.248Z,24.80
2018-04-06T11:35:39.494Z,25.90
2018-04-06T11:38:07.806Z,25.10
2018-04-06T11:40:36.121Z,25.40
2018-04-06T11:43:04.401Z,26.70
2018-04-06T11:45:32.670Z,27.80
2018-04-06T11:48:00.930Z,28.30
2018-04-06T11:50:29.978Z,27.90
2018-04-06T11:52:58.177Z,27.90
2018-04-06T11:55:26.416Z,29.20
2018-04-06T11:57:54.682Z,26.20
2018-04-06T12:00:23.460Z,25.50
2018-04-06T12:02:51.752Z,25.80
2018-04-06T12:05:19.984Z,25.50
2018-04-06T12:07:49.023Z,26.00
2018-04-06T12:10:18.292Z,25.90
2018-04-06T12:12:46.481Z,25.90
2018-04-06T12:15:14.750Z,25.50
2018-04-06T12:17:43.032Z,24.80
2018-04-06T12:20:11.262Z,25.00
2018-04-06T12:22:40.276Z,25.10
2018-04-06T12:25:09.369Z,25.40
2018-04-06T12:27:38.377Z,25.60
2018-04-06T12:30:06.581Z,25.60
2018-04-06T12:32:34.885Z,26.60
2018-04-06T12:35:03.218Z,26.30
2018-04-06T12:37:31.473Z,26.50
2018-04-06T12:39:59.761Z,26.30
2018-04-06T12:42:27.992Z,26.00
2018-04-06T12:44:56.194Z,26.00
2018-04-06T12:47:25.253Z,25.60
2018-04-06T12:49:53.464Z,25.50
2018-04-06T12:52:22.558Z,25.20
2018-04-06T12:54:51.550Z,25.50
2018-04-06T12:57:20.554Z,24.50
2018-04-06T12:59:49.504Z,27.50
2018-04-06T13:02:17.826Z,27.10
2018-04-06T13:04:46.801Z,25.70
2018-04-06T13:07:15.783Z,25.60
2018-04-06T13:09:43.997Z,25.60
2018-04-06T13:12:13.303Z,24.60
2018-04-06T13:14:41.516Z,25.50
2018-04-06T13:17:09.896Z,25.30
2018-04-06T13:19:38.747Z,26.10
2018-04-06T13:22:07.700Z,25.80
2018-04-06T13:24:36.022Z,25.70
2018-04-06T13:27:04.251Z,25.60
2018-04-06T13:29:32.451Z,25.40
2018-04-06T13:32:01.573Z,26.00
2018-04-06T13:34:29.798Z,26.00
2018-04-06T13:36:57.998Z,26.70
2018-04-06T13:39:26.235Z,26.90
2018-04-06T13:41:54.440Z,25.80
2018-04-06T13:46:46.667Z,24.50
2018-04-06T13:49:14.854Z,24.90
2018-04-06T13:51:43.933Z,23.70
2018-04-06T13:54:12.321Z,23.70
2018-04-06T13:56:40.544Z,23.40
2018-04-06T13:59:08.874Z,24.00
2018-04-06T14:01:37.240Z,22.90
2018-04-06T14:04:05.434Z,24.30
2018-04-06T14:06:33.641Z,24.10
2018-04-06T14:09:02.761Z,23.80
2018-04-06T14:11:30.973Z,23.70
2018-04-06T14:13:59.169Z,23.10
2018-04-06T14:16:28.256Z,22.50
2018-04-06T14:18:57.252Z,23.40
2018-04-06T14:21:26.356Z,24.40
2018-04-06T14:23:55.364Z,23.30
2018-04-06T14:26:23.611Z,23.40
2018-04-06T14:28:52.630Z,23.00
2018-04-06T14:31:21.626Z,23.50
2018-04-06T14:33:50.564Z,23.20
2018-04-06T14:36:18.760Z,23.10
2018-04-06T14:38:47.849Z,24.00
2018-04-06T14:41:16.015Z,24.00
2018-04-06T14:43:44.252Z,23.20
2018-04-06T14:46:12.474Z,24.00
2018-04-06T14:48:40.708Z,24.40
2018-04-06T14:51:08.906Z,23.90
2018-04-06T14:53:37.176Z,24.50
2018-04-06T14:56:05.402Z,26.20
2018-04-06T14:58:34.400Z,25.20
2018-04-06T15:01:03.492Z,24.40
2018-04-06T15:03:32.486Z,24.50
2018-04-06T15:06:01.497Z,25.80
2018-04-06T15:08:29.757Z,25.70
2018-04-06T15:10:58.724Z,26.80
2018-04-06T15:13:27.042Z,26.60
2018-04-06T15:15:55.280Z,26.70
2018-04-06T15:18:23.471Z,27.00
2018-04-06T15:20:52.445Z,26.60
2018-04-06T15:23:20.816Z,26.60
2018-04-06T15:25:49.067Z,28.00
2018-04-06T15:28:17.262Z,27.20
2018-04-06T15:30:45.485Z,28.30
2018-04-06T15:33:13.705Z,27.20
2018-04-06T15:35:41.895Z,27.50
2018-04-06T15:38:10.148Z,27.60
2018-04-06T15:40:39.157Z,26.40
2018-04-06T15:43:07.361Z,26.40
2018-04-06T15:45:36.421Z,27.50
2018-04-06T15:48:04.647Z,27.40
2018-04-06T15:50:32.923Z,26.80
2018-04-06T15:53:01.604Z,27.30
2018-04-06T15:55:29.934Z,27.60
2018-04-06T15:57:58.130Z,27.20
2018-04-06T16:00:26.824Z,27.70
2018-04-06T16:02:55.397Z,28.00
2018-04-06T16:05:23.604Z,28.30
2018-04-06T16:07:52.802Z,28.40
2018-04-06T16:10:21.826Z,29.30
2018-04-06T16:12:51.554Z,29.20
2018-04-06T16:15:20.282Z,30.30
2018-04-06T16:17:48.602Z,28.90
2018-04-06T16:20:16.885Z,29.30
2018-04-06T16:22:46.353Z,29.40
2018-04-06T16:25:15.480Z,29.30
2018-04-06T16:27:43.714Z,29.30
2018-04-06T16:30:12.112Z,29.00
2018-04-06T16:32:40.334Z,30.50
2018-04-06T16:35:08.492Z,30.30
2018-04-06T16:37:36.768Z,30.30
2018-04-06T16:40:05.894Z,32.20
2018-04-06T16:42:34.890Z,31.70
2018-04-06T16:45:03.197Z,31.70
2018-04-06T16:47:31.408Z,32.10
2018-04-06T16:50:00.490Z,33.20
2018-04-06T16:52:30.164Z,33.20
2018-04-06T16:54:58.370Z,32.50
2018-04-06T16:57:26.661Z,32.80
2018-04-06T16:59:55.628Z,33.40
2018-04-06T17:02:23.861Z,33.30
2018-04-06T17:04:52.814Z,34.30
2018-04-06T17:07:21.829Z,34.20
2018-04-06T17:09:50.033Z,34.20
2018-04-06T17:12:18.261Z,34.90
2018-04-06T17:14:47.301Z,34.80
2018-04-06T17:17:15.548Z,34.70
2018-04-06T17:19:44.618Z,36.50
2018-04-06T17:22:13.014Z,36.50
2018-04-06T17:24:41.988Z,37.00
2018-04-06T17:27:11.065Z,37.00
2018-04-06T17:29:39.465Z,37.00
2018-04-06T17:32:07.666Z,36.70
2018-04-06T17:34:36.640Z,37.90
2018-04-06T17:37:05.675Z,38.70
2018-04-06T17:39:34.010Z,38.70
2018-04-06T17:42:02.268Z,38.70
2018-04-06T17:44:30.653Z,39.60
2018-04-06T17:46:58.950Z,40.30
2018-04-06T17:49:27.975Z,39.60
2018-04-06T17:51:56.251Z,39.60
2018-04-06T17:54:24.440Z,40.50
2018-04-06T17:56:52.673Z,40.60
2018-04-06T17:59:21.868Z,42.00
2018-04-06T18:01:50.033Z,41.90
2018-04-06T18:04:18.990Z,41.10
2018-04-06T18:06:47.253Z,41.10
2018-04-06T18:09:15.477Z,42.80
2018-04-06T18:11:44.446Z,43.10
2018-04-06T18:14:12.690Z,43.00
2018-04-06T18:16:40.885Z,42.90
2018-04-06T18:19:09.085Z,43.20
2018-04-06T18:21:37.483Z,44.00
2018-04-06T18:24:07.810Z,43.70
2018-04-06T18:26:36.822Z,43.90
2018-04-06T18:29:05.069Z,43.90
2018-04-06T18:31:34.079Z,43.60
2018-04-06T18:34:03.065Z,43.70
2018-04-06T18:36:32.283Z,44.50
2018-04-06T18:39:00.474Z,44.50
2018-04-06T18:41:28.679Z,44.20
2018-04-06T18:43:57.045Z,44.40
2018-04-06T18:46:25.248Z,45.20
2018-04-06T18:48:53.455Z,46.00
2018-04-06T18:51:21.713Z,45.80
2018-04-06T18:53:50.761Z,46.80
2018-04-06T18:56:18.999Z,46.80
2018-04-06T18:58:47.261Z,47.00
2018-04-06T19:01:16.246Z,48.70
2018-04-06T19:03:45.192Z,47.80
2018-04-06T19:06:13.460Z,47.80
2018-04-06T19:08:41.714Z,47.50
2018-04-06T19:11:10.000Z,48.30
2018-04-06T19:13:38.221Z,48.30
2018-04-06T19:16:06.434Z,48.60
2018-04-06T19:18:35.449Z,47.40
2018-04-06T19:21:03.717Z,47.40
2018-04-06T19:23:32.024Z,48.00
2018-04-06T19:26:01.426Z,47.70
2018-04-06T19:31:09.316Z,49.30
2018-04-06T19:33:38.876Z,49.50
2018-04-06T19:36:07.422Z,49.50
2018-04-06T19:38:36.460Z,51.00
2018-04-06T19:41:04.711Z,51.00
2018-04-06T19:43:33.657Z,48.60
2018-04-06T19:46:01.908Z,48.60
2018-04-06T19:48:30.144Z,48.30
2018-04-06T19:50:58.337Z,47.90
2018-04-06T19:53:27.396Z,47.50
2018-04-06T19:55:55.596Z,47.70
2018-04-06T19:58:23.785Z,47.40
2018-04-06T20:00:52.138Z,46.40
2018-04-06T20:03:21.186Z,46.00
2018-04-06T20:05:49.388Z,46.00
2018-04-06T20:08:17.765Z,47.30
2018-04-06T20:10:46.043Z,45.90
2018-04-06T20:13:14.413Z,46.80
2018-04-06T20:18:18.026Z,46.20
2018-04-06T20:20:46.981Z,47.60
2018-04-06T20:23:15.180Z,47.60
2018-04-06T20:25:44.167Z,49.10
2018-04-06T20:28:13.420Z,49.10
2018-04-06T20:30:41.705Z,49.00
2018-04-06T20:33:09.939Z,49.00
2018-04-06T20:35:38.928Z,48.40
2018-04-06T20:38:07.905Z,48.20
2018-04-06T20:40:36.160Z,48.20
2018-04-06T20:43:04.365Z,48.60
2018-04-06T20:45:32.730Z,48.40
2018-04-06T20:48:01.108Z,49.20
2018-04-06T20:50:29.310Z,48.10
2018-04-06T20:52:57.513Z,47.70
2018-04-06T20:55:25.789Z,48.40
2018-04-06T20:57:53.974Z,50.40
2018-04-06T21:00:22.225Z,48.50
2018-04-06T21:02:50.489Z,47.90
2018-04-06T21:05:18.697Z,48.60
2018-04-06T21:07:46.956Z,47.20
2018-04-06T21:10:15.945Z,48.30
2018-04-06T21:12:44.132Z,48.30
2018-04-06T21:15:12.437Z,47.90
2018-04-06T21:17:40.744Z,48.10
2018-04-06T21:20:09.716Z,47.50
2018-04-06T21:22:38.045Z,47.50
2018-04-06T21:25:06.483Z,47.80
2018-04-06T21:27:34.747Z,48.50
2018-04-06T21:30:02.937Z,48.00
2018-04-06T21:32:31.486Z,47.20
2018-04-06T21:34:59.729Z,47.10
2018-04-06T21:37:28.020Z,47.40
2018-04-06T21:39:56.552Z,47.90
2018-04-06T21:42:24.998Z,48.00
2018-04-06T21:44:54.045Z,47.80
2018-04-06T21:47:22.630Z,47.80
2018-04-06T21:49:50.969Z,47.40
2018-04-06T21:52:19.470Z,48.30
2018-04-06T21:54:47.733Z,48.50
2018-04-06T21:57:16.009Z,48.20
2018-04-06T21:59:44.413Z,48.50
2018-04-06T22:02:13.490Z,48.20
2018-04-06T22:04:41.782Z,48.20
2018-04-06T22:07:10.743Z,49.20
2018-04-06T22:09:39.509Z,48.60
2018-04-06T22:12:07.886Z,49.00
2018-04-06T22:14:36.134Z,49.00
2018-04-06T22:17:05.126Z,50.00
2018-04-06T22:19:33.472Z,50.00
2018-04-06T22:22:01.660Z,50.30
2018-04-06T22:24:30.704Z,49.90
2018-04-06T22:26:58.908Z,49.90
2018-04-06T22:29:27.221Z,49.80
2018-04-06T22:31:55.502Z,50.10
2018-04-06T22:34:23.729Z,49.70
2018-04-06T22:36:51.916Z,49.70
2018-04-06T22:39:20.171Z,50.60
2018-04-06T22:41:48.397Z,51.50
2018-04-06T22:44:17.372Z,50.80
2018-04-06T22:46:45.580Z,50.80
2018-04-06T22:49:13.834Z,52.00
2018-04-06T22:51:42.886Z,52.90
2018-04-06T22:54:11.292Z,52.90
2018-04-06T22:56:39.549Z,52.60
2018-04-06T22:59:07.860Z,52.80
2018-04-06T23:01:36.865Z,53.10
2018-04-06T23:04:06.041Z,53.30
2018-04-06T23:06:34.224Z,53.40
2018-04-06T23:09:03.301Z,53.20
2018-04-06T23:11:31.687Z,53.20
2018-04-06T23:14:00.155Z,54.10
2018-04-06T23:16:28.584Z,54.30
2018-04-06T23:18:56.842Z,54.60
2018-04-06T23:21:25.863Z,54.20
2018-04-06T23:23:54.910Z,55.40
2018-04-06T23:26:23.147Z,55.40
2018-04-06T23:28:51.434Z,55.20
2018-04-06T23:31:19.902Z,55.40
2018-04-06T23:33:48.925Z,57.10
2018-04-06T23:36:17.120Z,57.20
2018-04-06T23:38:46.268Z,57.80
2018-04-06T23:41:14.477Z,57.70
2018-04-06T23:43:42.669Z,57.20
2018-04-06T23:46:11.713Z,57.60
2018-04-06T23:48:40.144Z,57.50
2018-04-06T23:51:08.356Z,56.50
2018-04-06T23:53:36.561Z,56.00
2018-04-06T23:56:04.766Z,56.00
2018-04-06T23:58:33.798Z,55.70
